sensor_id;sensor_type;location;lat;lon;timestamp;P1;durP1;ratioP1;P2;durP2;ratioP2
13250;SDS011;6692;50.710;7.180;2023-03-11T00:00:05;6.63;;;3.63;;
13250;SDS011;6692;50.710;7.180;2023-03-11T00:02:07;6.68;;;3.10;;
13250;SDS011;6692;50.710;7.180;2023-03-11T00:04:08;5.50;;;2.83;;
13250;SDS011;6692;50.710;7.180;2023-03-11T00:06:09;8.00;;;2.77;;
13250;SDS011;6692;50.710;7.180;2023-03-11T00:08:11;7.10;;;2.90;;
13250;SDS011;6692;50.710;7.180;2023-03-11T00:10:14;10.75;;;3.37;;
13250;SDS011;6692;50.710;7.180;2023-03-11T00:12:14;8.18;;;2.97;;
13250;SDS011;6692;50.710;7.180;2023-03-11T00:14:16;7.40;;;3.20;;
13250;SDS011;6692;50.710;7.180;2023-03-11T00:16:17;4.22;;;2.75;;
13250;SDS011;6692;50.710;7.180;2023-03-11T00:18:18;6.97;;;3.30;;
13250;SDS011;6692;50.710;7.180;2023-03-11T00:20:20;9.88;;;3.45;;
13250;SDS011;6692;50.710;7.180;2023-03-11T00:22:28;6.35;;;2.95;;
13250;SDS011;6692;50.710;7.180;2023-03-11T00:24:29;7.03;;;2.90;;
13250;SDS011;6692;50.710;7.180;2023-03-11T00:26:29;6.37;;;3.60;;
13250;SDS011;6692;50.710;7.180;2023-03-11T00:28:30;6.73;;;2.80;;
13250;SDS011;6692;50.710;7.180;2023-03-11T00:30:32;6.60;;;2.80;;
13250;SDS011;6692;50.710;7.180;2023-03-11T00:32:32;8.40;;;3.75;;
13250;SDS011;6692;50.710;7.180;2023-03-11T00:34:33;7.17;;;3.43;;
13250;SDS011;6692;50.710;7.180;2023-03-11T00:36:34;5.87;;;2.90;;
13250;SDS011;6692;50.710;7.180;2023-03-11T00:38:35;5.63;;;2.87;;
13250;SDS011;6692;50.710;7.180;2023-03-11T00:40:36;9.77;;;3.40;;
13250;SDS011;6692;50.710;7.180;2023-03-11T00:42:37;6.57;;;3.00;;
13250;SDS011;6692;50.710;7.180;2023-03-11T00:44:38;7.90;;;2.80;;
13250;SDS011;6692;50.710;7.180;2023-03-11T00:46:39;7.03;;;2.80;;
13250;SDS011;6692;50.710;7.180;2023-03-11T00:48:39;6.97;;;2.80;;
13250;SDS011;6692;50.710;7.180;2023-03-11T00:50:40;4.17;;;2.67;;
13250;SDS011;6692;50.710;7.180;2023-03-11T00:52:42;7.47;;;3.10;;
13250;SDS011;6692;50.710;7.180;2023-03-11T00:54:42;7.68;;;3.72;;
13250;SDS011;6692;50.710;7.180;2023-03-11T00:56:43;7.20;;;3.13;;
13250;SDS011;6692;50.710;7.180;2023-03-11T00:58:45;6.53;;;2.83;;
13250;SDS011;6692;50.710;7.180;2023-03-11T01:00:46;6.47;;;2.70;;
13250;SDS011;6692;50.710;7.180;2023-03-11T01:02:46;6.20;;;3.40;;
13250;SDS011;6692;50.710;7.180;2023-03-11T01:04:47;5.50;;;3.07;;
13250;SDS011;6692;50.710;7.180;2023-03-11T01:06:48;11.10;;;3.57;;
13250;SDS011;6692;50.710;7.180;2023-03-11T01:08:48;6.30;;;3.70;;
13250;SDS011;6692;50.710;7.180;2023-03-11T01:10:50;8.70;;;3.00;;
13250;SDS011;6692;50.710;7.180;2023-03-11T01:12:51;3.97;;;3.00;;
13250;SDS011;6692;50.710;7.180;2023-03-11T01:14:51;6.07;;;2.80;;
13250;SDS011;6692;50.710;7.180;2023-03-11T01:16:53;6.67;;;2.73;;
13250;SDS011;6692;50.710;7.180;2023-03-11T01:18:54;5.45;;;2.92;;
13250;SDS011;6692;50.710;7.180;2023-03-11T01:20:54;7.10;;;2.97;;
13250;SDS011;6692;50.710;7.180;2023-03-11T01:22:55;9.87;;;3.63;;
13250;SDS011;6692;50.710;7.180;2023-03-11T01:24:57;8.67;;;3.33;;
13250;SDS011;6692;50.710;7.180;2023-03-11T01:26:57;9.15;;;3.62;;
13250;SDS011;6692;50.710;7.180;2023-03-11T01:28:58;8.20;;;3.10;;
13250;SDS011;6692;50.710;7.180;2023-03-11T01:31:00;7.50;;;2.97;;
13250;SDS011;6692;50.710;7.180;2023-03-11T01:33:00;7.55;;;3.17;;
13250;SDS011;6692;50.710;7.180;2023-03-11T01:35:01;6.77;;;3.00;;
13250;SDS011;6692;50.710;7.180;2023-03-11T01:37:02;7.07;;;3.27;;
13250;SDS011;6692;50.710;7.180;2023-03-11T01:39:03;6.87;;;3.33;;
13250;SDS011;6692;50.710;7.180;2023-03-11T01:41:03;9.23;;;3.67;;
13250;SDS011;6692;50.710;7.180;2023-03-11T01:43:04;9.10;;;3.50;;
13250;SDS011;6692;50.710;7.180;2023-03-11T01:45:18;7.80;;;2.90;;
13250;SDS011;6692;50.710;7.180;2023-03-11T01:49:28;7.25;;;3.35;;
13250;SDS011;6692;50.710;7.180;2023-03-11T01:51:31;6.03;;;2.87;;
13250;SDS011;6692;50.710;7.180;2023-03-11T01:53:31;6.18;;;2.87;;
13250;SDS011;6692;50.710;7.180;2023-03-11T01:55:31;8.63;;;2.90;;
13250;SDS011;6692;50.710;7.180;2023-03-11T01:57:32;7.60;;;3.27;;
13250;SDS011;6692;50.710;7.180;2023-03-11T01:59:35;10.17;;;3.43;;
13250;SDS011;6692;50.710;7.180;2023-03-11T02:01:34;6.37;;;3.53;;
13250;SDS011;6692;50.710;7.180;2023-03-11T02:03:37;4.53;;;2.67;;
13250;SDS011;6692;50.710;7.180;2023-03-11T02:05:36;7.30;;;3.47;;
13250;SDS011;6692;50.710;7.180;2023-03-11T02:07:37;7.20;;;2.83;;
13250;SDS011;6692;50.710;7.180;2023-03-11T02:09:38;5.73;;;3.03;;
13250;SDS011;6692;50.710;7.180;2023-03-11T02:11:39;5.57;;;2.95;;
13250;SDS011;6692;50.710;7.180;2023-03-11T02:13:39;5.73;;;3.30;;
13250;SDS011;6692;50.710;7.180;2023-03-11T02:15:41;5.37;;;2.90;;
13250;SDS011;6692;50.710;7.180;2023-03-11T02:17:41;7.15;;;3.05;;
13250;SDS011;6692;50.710;7.180;2023-03-11T02:21:49;5.15;;;2.40;;
13250;SDS011;6692;50.710;7.180;2023-03-11T02:24:10;8.30;;;3.03;;
13250;SDS011;6692;50.710;7.180;2023-03-11T02:26:10;8.10;;;2.92;;
13250;SDS011;6692;50.710;7.180;2023-03-11T02:28:09;8.25;;;3.15;;
13250;SDS011;6692;50.710;7.180;2023-03-11T02:30:11;5.17;;;2.47;;
13250;SDS011;6692;50.710;7.180;2023-03-11T02:32:11;3.40;;;2.65;;
13250;SDS011;6692;50.710;7.180;2023-03-11T02:34:15;4.13;;;2.73;;
13250;SDS011;6692;50.710;7.180;2023-03-11T02:38:27;6.60;;;3.10;;
13250;SDS011;6692;50.710;7.180;2023-03-11T02:40:36;5.30;;;3.00;;
13250;SDS011;6692;50.710;7.180;2023-03-11T02:42:38;5.18;;;3.22;;
13250;SDS011;6692;50.710;7.180;2023-03-11T02:44:39;6.87;;;2.87;;
13250;SDS011;6692;50.710;7.180;2023-03-11T02:46:40;7.57;;;3.40;;
13250;SDS011;6692;50.710;7.180;2023-03-11T02:48:41;9.20;;;3.57;;
13250;SDS011;6692;50.710;7.180;2023-03-11T02:50:43;7.22;;;3.20;;
13250;SDS011;6692;50.710;7.180;2023-03-11T02:52:43;12.27;;;3.17;;
13250;SDS011;6692;50.710;7.180;2023-03-11T02:54:44;8.17;;;3.10;;
13250;SDS011;6692;50.710;7.180;2023-03-11T02:56:45;4.25;;;2.42;;
13250;SDS011;6692;50.710;7.180;2023-03-11T02:58:45;7.43;;;2.53;;
13250;SDS011;6692;50.710;7.180;2023-03-11T03:00:46;5.87;;;3.23;;
13250;SDS011;6692;50.710;7.180;2023-03-11T03:02:47;6.07;;;2.87;;
13250;SDS011;6692;50.710;7.180;2023-03-11T03:04:48;5.23;;;2.70;;
13250;SDS011;6692;50.710;7.180;2023-03-11T03:06:48;3.67;;;2.60;;
13250;SDS011;6692;50.710;7.180;2023-03-11T03:08:49;5.40;;;2.60;;
13250;SDS011;6692;50.710;7.180;2023-03-11T03:10:50;5.23;;;2.70;;
13250;SDS011;6692;50.710;7.180;2023-03-11T03:12:50;6.60;;;3.00;;
13250;SDS011;6692;50.710;7.180;2023-03-11T03:14:52;4.27;;;2.17;;
13250;SDS011;6692;50.710;7.180;2023-03-11T03:16:52;4.82;;;2.50;;
13250;SDS011;6692;50.710;7.180;2023-03-11T03:18:54;6.30;;;3.40;;
13250;SDS011;6692;50.710;7.180;2023-03-11T03:20:55;4.68;;;2.70;;
13250;SDS011;6692;50.710;7.180;2023-03-11T03:22:56;8.93;;;3.03;;
13250;SDS011;6692;50.710;7.180;2023-03-11T03:24:56;10.70;;;3.07;;
13250;SDS011;6692;50.710;7.180;2023-03-11T03:26:57;6.87;;;2.50;;
13250;SDS011;6692;50.710;7.180;2023-03-11T03:28:57;6.30;;;2.50;;
13250;SDS011;6692;50.710;7.180;2023-03-11T03:31:03;5.80;;;3.00;;
13250;SDS011;6692;50.710;7.180;2023-03-11T03:33:03;5.45;;;2.95;;
13250;SDS011;6692;50.710;7.180;2023-03-11T03:35:04;5.80;;;2.90;;
13250;SDS011;6692;50.710;7.180;2023-03-11T03:37:05;5.18;;;2.60;;
13250;SDS011;6692;50.710;7.180;2023-03-11T03:39:06;6.30;;;2.60;;
13250;SDS011;6692;50.710;7.180;2023-03-11T03:41:07;4.50;;;2.20;;
13250;SDS011;6692;50.710;7.180;2023-03-11T03:43:08;5.80;;;2.67;;
13250;SDS011;6692;50.710;7.180;2023-03-11T03:45:09;8.27;;;2.80;;
13250;SDS011;6692;50.710;7.180;2023-03-11T03:47:10;5.82;;;2.85;;
13250;SDS011;6692;50.710;7.180;2023-03-11T03:49:11;5.43;;;2.63;;
13250;SDS011;6692;50.710;7.180;2023-03-11T03:51:12;7.33;;;2.57;;
13250;SDS011;6692;50.710;7.180;2023-03-11T03:53:12;3.43;;;3.03;;
13250;SDS011;6692;50.710;7.180;2023-03-11T03:55:13;4.83;;;2.43;;
13250;SDS011;6692;50.710;7.180;2023-03-11T03:57:13;7.07;;;2.43;;
13250;SDS011;6692;50.710;7.180;2023-03-11T03:59:15;5.00;;;2.47;;
13250;SDS011;6692;50.710;7.180;2023-03-11T04:01:16;2.97;;;2.15;;
13250;SDS011;6692;50.710;7.180;2023-03-11T04:03:16;5.20;;;2.50;;
13250;SDS011;6692;50.710;7.180;2023-03-11T04:05:17;4.27;;;2.50;;
13250;SDS011;6692;50.710;7.180;2023-03-11T04:07:18;8.67;;;2.77;;
13250;SDS011;6692;50.710;7.180;2023-03-11T04:09:19;4.30;;;2.53;;
13250;SDS011;6692;50.710;7.180;2023-03-11T04:11:20;4.40;;;2.10;;
13250;SDS011;6692;50.710;7.180;2023-03-11T04:13:21;5.03;;;2.30;;
13250;SDS011;6692;50.710;7.180;2023-03-11T04:15:21;4.17;;;2.43;;
13250;SDS011;6692;50.710;7.180;2023-03-11T04:17:22;3.77;;;2.37;;
13250;SDS011;6692;50.710;7.180;2023-03-11T04:19:24;3.13;;;2.40;;
13250;SDS011;6692;50.710;7.180;2023-03-11T04:21:25;3.10;;;2.45;;
13250;SDS011;6692;50.710;7.180;2023-03-11T04:23:26;2.55;;;2.03;;
13250;SDS011;6692;50.710;7.180;2023-03-11T04:25:26;6.87;;;2.67;;
13250;SDS011;6692;50.710;7.180;2023-03-11T04:27:27;6.20;;;2.50;;
13250;SDS011;6692;50.710;7.180;2023-03-11T04:29:29;3.83;;;2.40;;
13250;SDS011;6692;50.710;7.180;2023-03-11T04:31:30;6.57;;;2.92;;
13250;SDS011;6692;50.710;7.180;2023-03-11T04:33:31;4.82;;;3.25;;
13250;SDS011;6692;50.710;7.180;2023-03-11T04:35:31;3.93;;;2.10;;
13250;SDS011;6692;50.710;7.180;2023-03-11T04:37:33;4.70;;;2.87;;
13250;SDS011;6692;50.710;7.180;2023-03-11T04:39:34;3.62;;;2.75;;
13250;SDS011;6692;50.710;7.180;2023-03-11T04:41:35;6.13;;;2.93;;
13250;SDS011;6692;50.710;7.180;2023-03-11T04:43:35;3.33;;;2.50;;
13250;SDS011;6692;50.710;7.180;2023-03-11T04:45:38;5.77;;;2.67;;
13250;SDS011;6692;50.710;7.180;2023-03-11T04:47:38;4.78;;;2.80;;
13250;SDS011;6692;50.710;7.180;2023-03-11T04:49:39;4.60;;;3.00;;
13250;SDS011;6692;50.710;7.180;2023-03-11T04:51:40;4.10;;;2.90;;
13250;SDS011;6692;50.710;7.180;2023-03-11T04:53:41;3.50;;;2.40;;
13250;SDS011;6692;50.710;7.180;2023-03-11T04:55:41;3.50;;;2.63;;
13250;SDS011;6692;50.710;7.180;2023-03-11T04:57:42;6.00;;;2.70;;
13250;SDS011;6692;50.710;7.180;2023-03-11T04:59:43;5.87;;;3.10;;
13250;SDS011;6692;50.710;7.180;2023-03-11T05:01:45;6.07;;;2.78;;
13250;SDS011;6692;50.710;7.180;2023-03-11T05:03:46;3.28;;;2.30;;
13250;SDS011;6692;50.710;7.180;2023-03-11T05:05:46;2.47;;;2.20;;
13250;SDS011;6692;50.710;7.180;2023-03-11T05:07:47;3.47;;;2.50;;
13250;SDS011;6692;50.710;7.180;2023-03-11T05:09:48;4.13;;;2.40;;
13250;SDS011;6692;50.710;7.180;2023-03-11T05:11:48;3.23;;;2.50;;
13250;SDS011;6692;50.710;7.180;2023-03-11T05:13:49;3.77;;;2.57;;
13250;SDS011;6692;50.710;7.180;2023-03-11T05:15:50;4.10;;;2.60;;
13250;SDS011;6692;50.710;7.180;2023-03-11T05:17:51;3.77;;;2.83;;
13250;SDS011;6692;50.710;7.180;2023-03-11T05:19:52;2.78;;;2.45;;
13250;SDS011;6692;50.710;7.180;2023-03-11T05:21:53;3.73;;;2.33;;
13250;SDS011;6692;50.710;7.180;2023-03-11T05:23:54;3.43;;;2.50;;
13250;SDS011;6692;50.710;7.180;2023-03-11T05:25:55;3.78;;;2.60;;
13250;SDS011;6692;50.710;7.180;2023-03-11T05:27:56;3.47;;;2.30;;
13250;SDS011;6692;50.710;7.180;2023-03-11T05:29:56;2.40;;;2.13;;
13250;SDS011;6692;50.710;7.180;2023-03-11T05:31:57;4.00;;;2.40;;
13250;SDS011;6692;50.710;7.180;2023-03-11T05:33:58;2.40;;;1.90;;
13250;SDS011;6692;50.710;7.180;2023-03-11T05:36:04;4.05;;;2.78;;
13250;SDS011;6692;50.710;7.180;2023-03-11T05:38:05;2.92;;;2.35;;
13250;SDS011;6692;50.710;7.180;2023-03-11T05:40:06;4.73;;;2.30;;
13250;SDS011;6692;50.710;7.180;2023-03-11T05:42:07;2.30;;;2.10;;
13250;SDS011;6692;50.710;7.180;2023-03-11T05:44:08;3.77;;;2.60;;
13250;SDS011;6692;50.710;7.180;2023-03-11T05:46:10;2.90;;;2.57;;
13250;SDS011;6692;50.710;7.180;2023-03-11T05:48:11;2.50;;;2.15;;
13250;SDS011;6692;50.710;7.180;2023-03-11T05:50:12;3.62;;;2.92;;
13250;SDS011;6692;50.710;7.180;2023-03-11T05:52:12;3.90;;;2.90;;
13250;SDS011;6692;50.710;7.180;2023-03-11T05:54:13;2.93;;;2.30;;
13250;SDS011;6692;50.710;7.180;2023-03-11T05:56:14;4.23;;;2.57;;
13250;SDS011;6692;50.710;7.180;2023-03-11T05:58:15;5.37;;;3.10;;
13250;SDS011;6692;50.710;7.180;2023-03-11T06:00:16;3.45;;;2.85;;
13250;SDS011;6692;50.710;7.180;2023-03-11T06:02:18;2.17;;;1.98;;
13250;SDS011;6692;50.710;7.180;2023-03-11T06:04:19;4.33;;;2.90;;
13250;SDS011;6692;50.710;7.180;2023-03-11T06:06:20;5.25;;;3.20;;
13250;SDS011;6692;50.710;7.180;2023-03-11T06:08:20;4.00;;;3.00;;
13250;SDS011;6692;50.710;7.180;2023-03-11T06:10:22;5.07;;;3.20;;
13250;SDS011;6692;50.710;7.180;2023-03-11T06:12:23;4.22;;;2.70;;
13250;SDS011;6692;50.710;7.180;2023-03-11T06:14:23;3.53;;;2.40;;
13250;SDS011;6692;50.710;7.180;2023-03-11T06:16:24;3.70;;;3.13;;
13250;SDS011;6692;50.710;7.180;2023-03-11T06:18:25;4.93;;;2.80;;
13250;SDS011;6692;50.710;7.180;2023-03-11T06:20:26;3.03;;;2.50;;
13250;SDS011;6692;50.710;7.180;2023-03-11T06:22:27;3.15;;;2.80;;
13250;SDS011;6692;50.710;7.180;2023-03-11T06:24:28;4.17;;;2.97;;
13250;SDS011;6692;50.710;7.180;2023-03-11T06:26:28;5.70;;;3.10;;
13250;SDS011;6692;50.710;7.180;2023-03-11T06:28:29;4.23;;;2.80;;
13250;SDS011;6692;50.710;7.180;2023-03-11T06:30:30;3.33;;;3.00;;
13250;SDS011;6692;50.710;7.180;2023-03-11T06:32:30;4.50;;;3.20;;
13250;SDS011;6692;50.710;7.180;2023-03-11T06:34:31;3.63;;;3.03;;
13250;SDS011;6692;50.710;7.180;2023-03-11T06:36:32;3.50;;;3.20;;
13250;SDS011;6692;50.710;7.180;2023-03-11T06:38:33;4.17;;;2.60;;
13250;SDS011;6692;50.710;7.180;2023-03-11T06:40:35;6.37;;;2.77;;
13250;SDS011;6692;50.710;7.180;2023-03-11T06:42:34;4.47;;;2.83;;
13250;SDS011;6692;50.710;7.180;2023-03-11T06:44:35;5.00;;;3.50;;
13250;SDS011;6692;50.710;7.180;2023-03-11T06:46:36;4.70;;;3.33;;
13250;SDS011;6692;50.710;7.180;2023-03-11T06:48:36;7.20;;;3.30;;
13250;SDS011;6692;50.710;7.180;2023-03-11T06:50:37;5.70;;;2.80;;
13250;SDS011;6692;50.710;7.180;2023-03-11T06:52:38;5.17;;;3.50;;
13250;SDS011;6692;50.710;7.180;2023-03-11T06:54:38;5.80;;;3.57;;
13250;SDS011;6692;50.710;7.180;2023-03-11T06:56:39;5.53;;;3.40;;
13250;SDS011;6692;50.710;7.180;2023-03-11T06:58:40;5.67;;;3.10;;
13250;SDS011;6692;50.710;7.180;2023-03-11T07:00:41;4.60;;;3.37;;
13250;SDS011;6692;50.710;7.180;2023-03-11T07:02:41;4.10;;;3.60;;
13250;SDS011;6692;50.710;7.180;2023-03-11T07:04:42;4.33;;;3.43;;
13250;SDS011;6692;50.710;7.180;2023-03-11T07:06:43;4.70;;;2.77;;
13250;SDS011;6692;50.710;7.180;2023-03-11T07:08:45;7.40;;;3.30;;
13250;SDS011;6692;50.710;7.180;2023-03-11T07:10:44;4.40;;;3.30;;
13250;SDS011;6692;50.710;7.180;2023-03-11T07:12:45;4.97;;;3.20;;
13250;SDS011;6692;50.710;7.180;2023-03-11T07:14:46;4.93;;;3.50;;
13250;SDS011;6692;50.710;7.180;2023-03-11T07:16:48;5.65;;;3.62;;
13250;SDS011;6692;50.710;7.180;2023-03-11T07:18:49;4.53;;;3.37;;
13250;SDS011;6692;50.710;7.180;2023-03-11T07:20:49;5.67;;;3.57;;
13250;SDS011;6692;50.710;7.180;2023-03-11T07:22:50;4.83;;;3.40;;
13250;SDS011;6692;50.710;7.180;2023-03-11T07:24:51;5.13;;;3.40;;
13250;SDS011;6692;50.710;7.180;2023-03-11T07:26:52;6.77;;;3.23;;
13250;SDS011;6692;50.710;7.180;2023-03-11T07:28:54;9.18;;;3.92;;
13250;SDS011;6692;50.710;7.180;2023-03-11T07:30:54;5.95;;;3.65;;
13250;SDS011;6692;50.710;7.180;2023-03-11T07:32:55;6.33;;;3.30;;
13250;SDS011;6692;50.710;7.180;2023-03-11T07:34:56;4.83;;;3.70;;
13250;SDS011;6692;50.710;7.180;2023-03-11T07:36:56;6.57;;;3.57;;
13250;SDS011;6692;50.710;7.180;2023-03-11T07:38:59;6.03;;;3.40;;
13250;SDS011;6692;50.710;7.180;2023-03-11T07:40:59;5.22;;;3.40;;
13250;SDS011;6692;50.710;7.180;2023-03-11T07:43:00;4.12;;;3.72;;
13250;SDS011;6692;50.710;7.180;2023-03-11T07:45:01;3.70;;;3.30;;
13250;SDS011;6692;50.710;7.180;2023-03-11T07:47:02;5.37;;;3.23;;
13250;SDS011;6692;50.710;7.180;2023-03-11T07:49:02;5.60;;;3.60;;
13250;SDS011;6692;50.710;7.180;2023-03-11T07:51:05;5.57;;;3.30;;
13250;SDS011;6692;50.710;7.180;2023-03-11T07:53:05;11.38;;;3.53;;
13250;SDS011;6692;50.710;7.180;2023-03-11T07:55:06;10.87;;;3.17;;
13250;SDS011;6692;50.710;7.180;2023-03-11T07:57:08;6.87;;;3.97;;
13250;SDS011;6692;50.710;7.180;2023-03-11T07:59:08;6.23;;;3.40;;
13250;SDS011;6692;50.710;7.180;2023-03-11T08:01:12;3.97;;;3.40;;
13250;SDS011;6692;50.710;7.180;2023-03-11T08:03:12;5.22;;;3.28;;
13250;SDS011;6692;50.710;7.180;2023-03-11T08:05:13;5.05;;;3.58;;
13250;SDS011;6692;50.710;7.180;2023-03-11T08:07:14;5.43;;;3.30;;
13250;SDS011;6692;50.710;7.180;2023-03-11T08:09:15;6.73;;;4.03;;
13250;SDS011;6692;50.710;7.180;2023-03-11T08:11:16;7.47;;;3.70;;
13250;SDS011;6692;50.710;7.180;2023-03-11T08:13:17;5.17;;;3.33;;
13250;SDS011;6692;50.710;7.180;2023-03-11T08:15:17;5.77;;;3.97;;
13250;SDS011;6692;50.710;7.180;2023-03-11T08:17:18;7.83;;;4.13;;
13250;SDS011;6692;50.710;7.180;2023-03-11T08:19:19;6.73;;;3.87;;
13250;SDS011;6692;50.710;7.180;2023-03-11T08:21:21;6.73;;;4.50;;
13250;SDS011;6692;50.710;7.180;2023-03-11T08:23:21;7.63;;;4.20;;
13250;SDS011;6692;50.710;7.180;2023-03-11T08:25:22;5.87;;;3.55;;
13250;SDS011;6692;50.710;7.180;2023-03-11T08:27:23;6.43;;;3.73;;
13250;SDS011;6692;50.710;7.180;2023-03-11T08:29:23;5.43;;;3.60;;
13250;SDS011;6692;50.710;7.180;2023-03-11T08:31:26;5.70;;;3.73;;
13250;SDS011;6692;50.710;7.180;2023-03-11T08:33:25;7.87;;;3.87;;
13250;SDS011;6692;50.710;7.180;2023-03-11T08:35:26;6.30;;;3.75;;
13250;SDS011;6692;50.710;7.180;2023-03-11T08:37:27;7.10;;;4.20;;
13250;SDS011;6692;50.710;7.180;2023-03-11T08:39:28;8.17;;;3.80;;
13250;SDS011;6692;50.710;7.180;2023-03-11T08:41:29;6.35;;;3.97;;
13250;SDS011;6692;50.710;7.180;2023-03-11T08:43:30;9.13;;;3.83;;
13250;SDS011;6692;50.710;7.180;2023-03-11T08:45:31;6.57;;;3.80;;
13250;SDS011;6692;50.710;7.180;2023-03-11T08:47:33;5.25;;;3.92;;
13250;SDS011;6692;50.710;7.180;2023-03-11T08:49:33;6.27;;;4.23;;
13250;SDS011;6692;50.710;7.180;2023-03-11T08:51:33;8.60;;;4.10;;
13250;SDS011;6692;50.710;7.180;2023-03-11T08:53:34;6.77;;;3.53;;
13250;SDS011;6692;50.710;7.180;2023-03-11T08:55:35;4.80;;;3.93;;
13250;SDS011;6692;50.710;7.180;2023-03-11T08:57:35;5.00;;;3.90;;
13250;SDS011;6692;50.710;7.180;2023-03-11T08:59:37;6.27;;;3.80;;
13250;SDS011;6692;50.710;7.180;2023-03-11T09:01:38;4.57;;;3.70;;
13250;SDS011;6692;50.710;7.180;2023-03-11T09:03:39;5.67;;;3.43;;
13250;SDS011;6692;50.710;7.180;2023-03-11T09:05:39;6.73;;;4.30;;
13250;SDS011;6692;50.710;7.180;2023-03-11T09:07:40;5.80;;;3.90;;
13250;SDS011;6692;50.710;7.180;2023-03-11T09:09:40;5.37;;;3.33;;
13250;SDS011;6692;50.710;7.180;2023-03-11T09:11:41;4.43;;;3.80;;
13250;SDS011;6692;50.710;7.180;2023-03-11T09:13:42;6.47;;;3.90;;
13250;SDS011;6692;50.710;7.180;2023-03-11T09:15:43;5.33;;;3.63;;
13250;SDS011;6692;50.710;7.180;2023-03-11T09:17:43;5.03;;;3.63;;
13250;SDS011;6692;50.710;7.180;2023-03-11T09:19:44;4.60;;;3.60;;
13250;SDS011;6692;50.710;7.180;2023-03-11T09:21:45;4.07;;;3.03;;
13250;SDS011;6692;50.710;7.180;2023-03-11T09:23:46;5.97;;;3.60;;
13250;SDS011;6692;50.710;7.180;2023-03-11T09:25:48;4.82;;;2.90;;
13250;SDS011;6692;50.710;7.180;2023-03-11T09:27:49;6.37;;;2.87;;
13250;SDS011;6692;50.710;7.180;2023-03-11T09:29:50;5.72;;;3.33;;
13250;SDS011;6692;50.710;7.180;2023-03-11T09:31:51;4.27;;;2.70;;
13250;SDS011;6692;50.710;7.180;2023-03-11T09:33:51;5.67;;;3.53;;
13250;SDS011;6692;50.710;7.180;2023-03-11T09:35:52;6.37;;;3.20;;
13250;SDS011;6692;50.710;7.180;2023-03-11T09:37:53;4.00;;;2.60;;
13250;SDS011;6692;50.710;7.180;2023-03-11T09:39:53;3.40;;;3.10;;
13250;SDS011;6692;50.710;7.180;2023-03-11T09:41:55;4.43;;;3.17;;
13250;SDS011;6692;50.710;7.180;2023-03-11T09:44:01;4.55;;;2.78;;
13250;SDS011;6692;50.710;7.180;2023-03-11T09:46:03;5.22;;;3.15;;
13250;SDS011;6692;50.710;7.180;2023-03-11T09:48:19;3.10;;;2.62;;
13250;SDS011;6692;50.710;7.180;2023-03-11T09:50:19;3.62;;;2.42;;
13250;SDS011;6692;50.710;7.180;2023-03-11T09:52:23;3.22;;;2.40;;
13250;SDS011;6692;50.710;7.180;2023-03-11T09:54:23;5.62;;;2.65;;
13250;SDS011;6692;50.710;7.180;2023-03-11T09:56:24;3.23;;;2.63;;
13250;SDS011;6692;50.710;7.180;2023-03-11T09:58:30;5.00;;;2.60;;
13250;SDS011;6692;50.710;7.180;2023-03-11T10:00:26;3.67;;;2.50;;
13250;SDS011;6692;50.710;7.180;2023-03-11T10:02:28;3.10;;;2.47;;
13250;SDS011;6692;50.710;7.180;2023-03-11T10:04:32;3.05;;;2.35;;
13250;SDS011;6692;50.710;7.180;2023-03-11T10:06:31;3.67;;;2.35;;
13250;SDS011;6692;50.710;7.180;2023-03-11T10:08:37;3.17;;;2.87;;
13250;SDS011;6692;50.710;7.180;2023-03-11T10:10:35;4.20;;;2.37;;
13250;SDS011;6692;50.710;7.180;2023-03-11T10:12:51;3.93;;;2.73;;
13250;SDS011;6692;50.710;7.180;2023-03-11T10:15:12;2.78;;;2.58;;
13250;SDS011;6692;50.710;7.180;2023-03-11T10:17:51;3.10;;;2.80;;
13250;SDS011;6692;50.710;7.180;2023-03-11T10:19:54;2.93;;;2.30;;
13250;SDS011;6692;50.710;7.180;2023-03-11T10:22:00;4.07;;;2.00;;
13250;SDS011;6692;50.710;7.180;2023-03-11T10:24:08;2.50;;;2.30;;
13250;SDS011;6692;50.710;7.180;2023-03-11T10:26:12;6.13;;;2.53;;
13250;SDS011;6692;50.710;7.180;2023-03-11T10:28:12;5.10;;;2.40;;
13250;SDS011;6692;50.710;7.180;2023-03-11T10:30:18;5.27;;;2.33;;
13250;SDS011;6692;50.710;7.180;2023-03-11T10:32:25;3.33;;;2.27;;
13250;SDS011;6692;50.710;7.180;2023-03-11T10:34:25;5.13;;;2.60;;
13250;SDS011;6692;50.710;7.180;2023-03-11T10:36:28;5.63;;;2.60;;
13250;SDS011;6692;50.710;7.180;2023-03-11T10:38:32;4.20;;;2.27;;
13250;SDS011;6692;50.710;7.180;2023-03-11T10:40:33;3.50;;;2.40;;
13250;SDS011;6692;50.710;7.180;2023-03-11T10:42:33;3.13;;;2.17;;
13250;SDS011;6692;50.710;7.180;2023-03-11T10:44:35;2.87;;;2.00;;
13250;SDS011;6692;50.710;7.180;2023-03-11T10:46:34;3.17;;;2.30;;
13250;SDS011;6692;50.710;7.180;2023-03-11T10:48:35;2.70;;;2.40;;
13250;SDS011;6692;50.710;7.180;2023-03-11T10:50:38;5.20;;;2.30;;
13250;SDS011;6692;50.710;7.180;2023-03-11T10:52:43;6.57;;;2.30;;
13250;SDS011;6692;50.710;7.180;2023-03-11T10:54:45;3.53;;;2.03;;
13250;SDS011;6692;50.710;7.180;2023-03-11T10:56:44;3.30;;;2.20;;
13250;SDS011;6692;50.710;7.180;2023-03-11T10:58:47;4.40;;;2.30;;
13250;SDS011;6692;50.710;7.180;2023-03-11T11:00:58;2.57;;;2.20;;
13250;SDS011;6692;50.710;7.180;2023-03-11T11:02:50;3.90;;;2.03;;
13250;SDS011;6692;50.710;7.180;2023-03-11T11:07:19;2.57;;;2.00;;
13250;SDS011;6692;50.710;7.180;2023-03-11T11:09:21;2.27;;;1.87;;
13250;SDS011;6692;50.710;7.180;2023-03-11T11:11:21;2.63;;;2.07;;
13250;SDS011;6692;50.710;7.180;2023-03-11T11:13:22;3.30;;;1.90;;
13250;SDS011;6692;50.710;7.180;2023-03-11T11:15:24;3.43;;;2.03;;
13250;SDS011;6692;50.710;7.180;2023-03-11T11:17:28;4.40;;;2.50;;
13250;SDS011;6692;50.710;7.180;2023-03-11T11:19:28;4.60;;;2.10;;
13250;SDS011;6692;50.710;7.180;2023-03-11T11:21:30;3.53;;;2.30;;
13250;SDS011;6692;50.710;7.180;2023-03-11T11:23:32;3.97;;;2.20;;
13250;SDS011;6692;50.710;7.180;2023-03-11T11:25:34;2.43;;;1.90;;
13250;SDS011;6692;50.710;7.180;2023-03-11T11:27:33;4.47;;;2.10;;
13250;SDS011;6692;50.710;7.180;2023-03-11T11:29:35;3.47;;;2.20;;
13250;SDS011;6692;50.710;7.180;2023-03-11T11:31:36;2.30;;;2.10;;
13250;SDS011;6692;50.710;7.180;2023-03-11T11:33:38;4.40;;;2.20;;
13250;SDS011;6692;50.710;7.180;2023-03-11T11:35:46;2.60;;;2.10;;
13250;SDS011;6692;50.710;7.180;2023-03-11T11:37:42;3.00;;;1.73;;
13250;SDS011;6692;50.710;7.180;2023-03-11T11:39:44;3.83;;;2.20;;
13250;SDS011;6692;50.710;7.180;2023-03-11T11:42:00;4.13;;;2.30;;
13250;SDS011;6692;50.710;7.180;2023-03-11T11:44:02;2.77;;;2.20;;
13250;SDS011;6692;50.710;7.180;2023-03-11T11:46:01;2.80;;;2.13;;
13250;SDS011;6692;50.710;7.180;2023-03-11T11:48:05;2.40;;;2.10;;
13250;SDS011;6692;50.710;7.180;2023-03-11T11:50:12;3.90;;;2.27;;
13250;SDS011;6692;50.710;7.180;2023-03-11T11:52:12;2.53;;;1.93;;
13250;SDS011;6692;50.710;7.180;2023-03-11T11:54:15;4.17;;;2.30;;
13250;SDS011;6692;50.710;7.180;2023-03-11T11:56:16;2.27;;;2.00;;
13250;SDS011;6692;50.710;7.180;2023-03-11T11:58:18;3.03;;;2.40;;
13250;SDS011;6692;50.710;7.180;2023-03-11T12:00:19;3.33;;;2.20;;
13250;SDS011;6692;50.710;7.180;2023-03-11T12:02:26;4.60;;;2.10;;
13250;SDS011;6692;50.710;7.180;2023-03-11T12:04:35;3.80;;;2.17;;
13250;SDS011;6692;50.710;7.180;2023-03-11T12:06:53;2.43;;;1.90;;
13250;SDS011;6692;50.710;7.180;2023-03-11T12:08:57;2.43;;;2.10;;
13250;SDS011;6692;50.710;7.180;2023-03-11T12:10:56;3.63;;;2.27;;
13250;SDS011;6692;50.710;7.180;2023-03-11T12:13:35;3.23;;;2.30;;
13250;SDS011;6692;50.710;7.180;2023-03-11T12:15:20;2.53;;;2.00;;
13250;SDS011;6692;50.710;7.180;2023-03-11T12:17:20;4.23;;;2.50;;
13250;SDS011;6692;50.710;7.180;2023-03-11T12:19:28;4.80;;;2.83;;
13250;SDS011;6692;50.710;7.180;2023-03-11T12:21:48;4.40;;;2.03;;
13250;SDS011;6692;50.710;7.180;2023-03-11T12:24:01;2.43;;;2.10;;
13250;SDS011;6692;50.710;7.180;2023-03-11T12:28:16;3.90;;;2.10;;
13250;SDS011;6692;50.710;7.180;2023-03-11T12:30:20;4.40;;;2.20;;
13250;SDS011;6692;50.710;7.180;2023-03-11T12:32:28;2.40;;;2.20;;
13250;SDS011;6692;50.710;7.180;2023-03-11T12:34:29;5.33;;;2.17;;